map of PSE home
PSE - Airport
Location
City:  Ponce, Puerto Rico, United States
Name:Mercedita Airport
ICAO:TJPS
IATA:PSE
FAA LID:PSE

Details
Type:Airport (Part 139 Class I)
Use:Public/Civil, International (customs landing rights)
Latitude:1800'32"N (18.008781)
Longitude:6633'52"W (-66.564520)
Datum:WGS 1984
Elevation:28 ft (9 m)
Variation:13.00W (WMM2015 magnetic declination)
-0.05 annual change
Runways:1
Longest:8004 × 150 ft (2440 × 45.5 m), paved

Time
Time Zone:UTC-4
Local Time:

Weather
TAF:TJPS 161720Z 1618/1718 13010KT P6SM FEW030 SCT060
FM162300 00000KT P6SM FEW060
FM171300 VRB10KT P6SM VCSH SCT025 SCT060

Related Locations
Nearby:
Farthest:BWB: 12200 mi / 19634 km
Barrow Island, WA, AU

Find:

   beyond  
but within

Other Information
Maps:
NOTAMs:
Links:
Sources:

  
  • flag of United States
  • flag of Puerto Rico
  • flag of Ponce
  

Sectional Chart

Flight Planning
at skyvector.com

Satellite Image

Google Maps Satellite view

 

Copyright © 2004-2018 Karl L. Swartz. All rights reserved.
The Great Circle Mapper name and logo are trademarks of the Great Circle Mapper.
All other trademarks mentioned herein belong to their respective owners.
Please see credits for attibutions and further copyright information.

  Follow gcmap on Facebook Follow gcmap on Twitter Follow gcmap on Google+ GCmap on LinkedIn

hCard Microformat

Geo Microformat